Dominia — ICFW — position and weather

sailwx.info

Track history (hours):
 
Tides and Currents Weather Stations Pressure Air Temp Water Temp Dewpoint Dewpoint Depression Visibility Wind Speed Wind Dir Waves Ship Positions

Dominia

Last reported at 2014-Jul-26 06:12 UTC. Time now 2014-Jul-30 19:14 UTC.
Position N 36°33' E 015°01'.

Length 176 m; draft 11 m.

Type: Ship (hazmat cat A). MMSI: 247273400.

Date/timePositionNaut miles runAvg speedWind from/ knotsBaromVisibWave heightAir tempDewpointWater temp
2014-Jul-26 06:12N 36°33' E 015°01'811.8
2014-Jul-26 05:33N 36°35' E 014°52'1212.1
2014-Jul-26 04:33N 36°38' E 014°38'1212.2
2014-Jul-26 03:33N 36°43' E 014°24'1211.9
2014-Jul-26 02:33N 36°48' E 014°10'1211.7
2014-Jul-26 01:33N 36°54' E 013°57'1211.9
2014-Jul-26 00:33N 36°59' E 013°44'1211.9
2014-Jul-25 23:33N 37°04' E 013°31'1311.7
2014-Jul-25 22:28N 37°10' E 013°17'1111.6
2014-Jul-25 21:30N 37°15' E 013°04'1111.3
2014-Jul-25 20:33N 37°18' E 012°51'1211.5
2014-Jul-25 19:32N 37°21' E 012°37'8011.4
2014-Jul-25 12:33N 37°34' E 010°57'1211.6
2014-Jul-25 11:33N 37°34' E 010°43'1211.8
2014-Jul-25 10:32N 37°35' E 010°28'1211.8
2014-Jul-25 09:32N 37°35' E 010°13'1212.0
2014-Jul-25 08:33N 37°35' E 009°58'1212.2
2014-Jul-25 07:33N 37°35' E 009°42'1313.1
2014-Jul-25 06:33N 37°36' E 009°26'1312.4
2014-Jul-25 05:32N 37°36' E 009°10'1711.8
2014-Jul-25 04:05N 37°36' E 008°48'611.7
2014-Jul-25 03:33N 37°36' E 008°41'1211.5
2014-Jul-25 02:33N 37°36' E 008°26'1111.1
2014-Jul-25 01:33N 37°36' E 008°12'1111.2
2014-Jul-25 00:33N 37°36' E 007°58'1311.5
2014-Jul-24 23:27N 37°36' E 007°42'8811.2
2014-Jul-24 15:33N 37°34' E 005°51'1110.9
2014-Jul-24 14:33N 37°34' E 005°37'1110.8
2014-Jul-24 13:33N 37°33' E 005°23'1111.1
2014-Jul-24 12:33N 37°33' E 005°09'1211.3
2014-Jul-24 11:32N 37°33' E 004°55'1111.2
2014-Jul-24 10:33N 37°33' E 004°41'1111.2
2014-Jul-24 09:33N 37°33' E 004°27'1111.0
2014-Jul-24 08:32N 37°33' E 004°13'1111.7
2014-Jul-24 07:33N 37°33' E 003°58'1211.6
2014-Jul-24 06:31N 37°32' E 003°43'1211.9
2014-Jul-24 05:32N 37°32' E 003°28'1111.6
2014-Jul-24 04:33N 37°32' E 003°14'1111.3
2014-Jul-24 03:33N 37°32' E 002°60'1111.3
2014-Jul-24 02:33N 37°31' E 002°45'1111.3
2014-Jul-24 01:33N 37°31' E 002°31'2411.6
2014-Jul-23 23:27N 37°31' E 002°01'1511.7
2014-Jul-23 22:13N 37°31' E 001°42'811.4
2014-Jul-23 21:28N 37°31' E 001°32'1210.9
2014-Jul-23 20:24N 37°30' E 001°17'910.6
2014-Jul-23 19:33N 37°30' E 001°05'1110.9
2014-Jul-23 18:33N 37°30' E 000°52'1111.0
2014-Jul-23 17:33N 37°30' E 000°38'1111.3
2014-Jul-23 16:33N 37°30' E 000°24'1111.4
2014-Jul-23 15:33N 37°30' E 000°09'1212.0
2014-Jul-23 14:33N 37°29' W 000°06'1111.5
2014-Jul-23 13:33N 37°29' W 000°20'1211.5
2014-Jul-23 12:33N 37°29' W 000°35'1211.5
2014-Jul-23 11:33N 37°31' W 000°49'  
2014-Jul-21 06:29N 37°34' W 000°60'8 0.2
2014-Jul-19 21:06N 37°30' W 000°51'4 6.9
2014-Jul-19 20:32N 37°32' W 000°47'1310.9
2014-Jul-19 19:23N 37°36' W 000°32'1011.8
2014-Jul-19 18:33N 37°41' W 000°21'10 8.4
2014-Jul-19 17:20N 37°45' W 000°09'1012.2
2014-Jul-19 16:33N 37°49' E 000°01'1212.0
2014-Jul-19 15:33N 37°55' E 000°15'9 9.1
2014-Jul-19 14:33N 37°59' E 000°25'1312.1
2014-Jul-19 13:29N 38°05' E 000°40'1112.1
2014-Jul-19 12:32N 38°10' E 000°53'1212.3
2014-Jul-19 11:33N 38°15' E 001°07'1312.6
2014-Jul-19 10:33N 38°21' E 001°21'1211.7
2014-Jul-19 09:33N 38°26' E 001°35'8 8.0
2014-Jul-19 08:33N 38°30' E 001°44'9 9.4
2014-Jul-19 07:33N 38°34' E 001°54'1212.5
2014-Jul-19 06:33N 38°39' E 002°09'1212.3
2014-Jul-19 05:33N 38°45' E 002°23'1212.4
2014-Jul-19 04:33N 38°50' E 002°37'1212.2
2014-Jul-19 03:33N 38°56' E 002°51'1212.0
2014-Jul-19 02:33N 39°01' E 003°05'1212.2
2014-Jul-19 01:33N 39°08' E 003°18'1212.3
2014-Jul-19 00:33N 39°15' E 003°31'1212.3
2014-Jul-18 23:33N 39°21' E 003°45'1212.3
2014-Jul-18 22:33N 39°28' E 003°59'1212.3
2014-Jul-18 21:33N 39°34' E 004°12'1212.2
2014-Jul-18 20:33N 39°40' E 004°26'8 7.8
2014-Jul-18 19:33N 39°45' E 004°33'9 7.7
2014-Jul-18 18:27N 39°51' E 004°41'7 8.0
2014-Jul-18 17:33N 39°56' E 004°48'8 7.9
2014-Jul-18 16:33N 40°02' E 004°55'8 7.7
2014-Jul-18 15:33N 40°07' E 005°02'1111.2
2014-Jul-18 14:33N 40°15' E 005°13'1312.8
2014-Jul-18 13:33N 40°24' E 005°25'1212.4
2014-Jul-18 12:33N 40°32' E 005°37'1212.3
2014-Jul-18 11:33N 40°41' E 005°49'1312.8
2014-Jul-18 10:33N 40°50' E 006°01'1312.7
2014-Jul-18 09:33N 40°59' E 006°13'1312.8
2014-Jul-18 08:33N 41°07' E 006°25'1312.7
2014-Jul-18 07:33N 41°16' E 006°37'1312.6
2014-Jul-18 06:33N 41°25' E 006°49'1212.5
2014-Jul-18 05:33N 41°34' E 007°01'1212.4
2014-Jul-18 04:33N 41°42' E 007°13'1212.2
2014-Jul-18 03:33N 41°51' E 007°25'1212.3
2014-Jul-18 02:33N 41°59' E 007°37'1212.5
2014-Jul-18 01:33N 42°08' E 007°49'1312.5
2014-Jul-18 00:33N 42°17' E 008°01'1212.4
2014-Jul-17 23:33N 42°25' E 008°13'1212.1
2014-Jul-17 22:33N 42°34' E 008°25'1211.9
2014-Jul-17 21:33N 42°42' E 008°37'1212.3
2014-Jul-17 20:33N 42°50' E 008°49'1312.7
2014-Jul-17 19:33N 42°59' E 009°01'1312.5
2014-Jul-17 18:33N 43°08' E 009°14'1212.3
2014-Jul-17 17:33N 43°16' E 009°26'6 6.0
2014-Jul-17 16:33N 43°21' E 009°32'1312.9
2014-Jul-17 15:33N 43°30' E 009°44'1212.2
2014-Jul-17 14:33N 43°32' E 010°01'1211.8
2014-Jul-17 13:33N 43°32' E 010°17'1 1.3
2014-Jul-17 12:32N 43°34' E 010°18'0 0.0
2014-Jul-17 11:32N 43°34' E 010°18'0 0.0
2014-Jul-17 10:32N 43°34' E 010°18'0 0.0
2014-Jul-17 09:32N 43°34' E 010°18'0 0.0
2014-Jul-17 08:32N 43°34' E 010°18'0 0.0
2014-Jul-17 07:29N 43°34' E 010°18'0 0.0
2014-Jul-17 06:32N 43°34' E 010°18'0 0.0
2014-Jul-17 05:32N 43°34' E 010°18'0 0.0
2014-Jul-17 04:32N 43°34' E 010°18'0 0.0
2014-Jul-17 03:32N 43°34' E 010°18'0 0.0
2014-Jul-17 02:32N 43°34' E 010°18'0 0.0
2014-Jul-17 01:32N 43°34' E 010°18'0 0.0
2014-Jul-17 00:32N 43°34' E 010°18'0 0.0
2014-Jul-16 23:32N 43°34' E 010°18'0 0.0
2014-Jul-16 22:32N 43°34' E 010°18'0 0.0
2014-Jul-16 21:32N 43°34' E 010°18'0 0.0
2014-Jul-16 20:32N 43°34' E 010°18'0 0.0
2014-Jul-16 19:32N 43°34' E 010°18'0 0.0
2014-Jul-16 18:32N 43°34' E 010°18'0 0.0
2014-Jul-16 17:32N 43°34' E 010°18'0 0.0
2014-Jul-16 16:32N 43°34' E 010°18'0 0.0
2014-Jul-16 15:32N 43°34' E 010°18'0 0.0
2014-Jul-16 14:32N 43°34' E 010°18'0 0.0
2014-Jul-16 13:32N 43°34' E 010°18'0 0.0
2014-Jul-16 12:32N 43°34' E 010°18'0 0.0
2014-Jul-16 11:32N 43°34' E 010°18'0 0.0
2014-Jul-16 10:32N 43°34' E 010°18'0 0.0
2014-Jul-16 09:32N 43°34' E 010°18'0 0.0
2014-Jul-16 08:32N 43°34' E 010°18'0 0.0
2014-Jul-16 07:29N 43°34' E 010°18'2 2.5
2014-Jul-16 06:33N 43°32' E 010°16'  
Track history (hours):
 
Tides and Currents Weather Stations Pressure Air Temp Water Temp Dewpoint Dewpoint Depression Visibility Wind Speed Wind Dir Waves Ship Positions

Dominia

Last reported at 2014-Jul-26 06:12 UTC. Time now 2014-Jul-30 19:14 UTC.
Position N 36°33' E 015°01'.

Length 176 m; draft 11 m.

Type: Ship (hazmat cat A). MMSI: 247273400.

Date/timePositionNaut miles runAvg speedWind from/ knotsBaromVisibWave heightAir tempDewpointWater temp
2014-Jul-26 06:12N 36°33' E 015°01'811.8
2014-Jul-26 05:33N 36°35' E 014°52'1212.1
2014-Jul-26 04:33N 36°38' E 014°38'1212.2
2014-Jul-26 03:33N 36°43' E 014°24'1211.9
2014-Jul-26 02:33N 36°48' E 014°10'1211.7
2014-Jul-26 01:33N 36°54' E 013°57'1211.9
2014-Jul-26 00:33N 36°59' E 013°44'1211.9
2014-Jul-25 23:33N 37°04' E 013°31'1311.7
2014-Jul-25 22:28N 37°10' E 013°17'1111.6
2014-Jul-25 21:30N 37°15' E 013°04'1111.3
2014-Jul-25 20:33N 37°18' E 012°51'1211.5
2014-Jul-25 19:32N 37°21' E 012°37'8011.4
2014-Jul-25 12:33N 37°34' E 010°57'1211.6
2014-Jul-25 11:33N 37°34' E 010°43'1211.8
2014-Jul-25 10:32N 37°35' E 010°28'1211.8
2014-Jul-25 09:32N 37°35' E 010°13'1212.0
2014-Jul-25 08:33N 37°35' E 009°58'1212.2
2014-Jul-25 07:33N 37°35' E 009°42'1313.1
2014-Jul-25 06:33N 37°36' E 009°26'1312.4
2014-Jul-25 05:32N 37°36' E 009°10'1711.8
2014-Jul-25 04:05N 37°36' E 008°48'611.7
2014-Jul-25 03:33N 37°36' E 008°41'1211.5
2014-Jul-25 02:33N 37°36' E 008°26'1111.1
2014-Jul-25 01:33N 37°36' E 008°12'1111.2
2014-Jul-25 00:33N 37°36' E 007°58'1311.5
2014-Jul-24 23:27N 37°36' E 007°42'8811.2
2014-Jul-24 15:33N 37°34' E 005°51'1110.9
2014-Jul-24 14:33N 37°34' E 005°37'1110.8
2014-Jul-24 13:33N 37°33' E 005°23'1111.1
2014-Jul-24 12:33N 37°33' E 005°09'1211.3
2014-Jul-24 11:32N 37°33' E 004°55'1111.2
2014-Jul-24 10:33N 37°33' E 004°41'1111.2
2014-Jul-24 09:33N 37°33' E 004°27'1111.0
2014-Jul-24 08:32N 37°33' E 004°13'1111.7
2014-Jul-24 07:33N 37°33' E 003°58'1211.6
2014-Jul-24 06:31N 37°32' E 003°43'1211.9
2014-Jul-24 05:32N 37°32' E 003°28'1111.6
2014-Jul-24 04:33N 37°32' E 003°14'1111.3
2014-Jul-24 03:33N 37°32' E 002°60'1111.3
2014-Jul-24 02:33N 37°31' E 002°45'1111.3
2014-Jul-24 01:33N 37°31' E 002°31'2411.6
2014-Jul-23 23:27N 37°31' E 002°01'1511.7
2014-Jul-23 22:13N 37°31' E 001°42'811.4
2014-Jul-23 21:28N 37°31' E 001°32'1210.9
2014-Jul-23 20:24N 37°30' E 001°17'910.6
2014-Jul-23 19:33N 37°30' E 001°05'1110.9
2014-Jul-23 18:33N 37°30' E 000°52'1111.0
2014-Jul-23 17:33N 37°30' E 000°38'1111.3
2014-Jul-23 16:33N 37°30' E 000°24'1111.4
2014-Jul-23 15:33N 37°30' E 000°09'1212.0
2014-Jul-23 14:33N 37°29' W 000°06'1111.5
2014-Jul-23 13:33N 37°29' W 000°20'1211.5
2014-Jul-23 12:33N 37°29' W 000°35'1211.5
2014-Jul-23 11:33N 37°31' W 000°49'  
2014-Jul-21 06:29N 37°34' W 000°60'8 0.2
2014-Jul-19 21:06N 37°30' W 000°51'4 6.9
2014-Jul-19 20:32N 37°32' W 000°47'1310.9
2014-Jul-19 19:23N 37°36' W 000°32'1011.8
2014-Jul-19 18:33N 37°41' W 000°21'10 8.4
2014-Jul-19 17:20N 37°45' W 000°09'1012.2
2014-Jul-19 16:33N 37°49' E 000°01'1212.0
2014-Jul-19 15:33N 37°55' E 000°15'9 9.1
2014-Jul-19 14:33N 37°59' E 000°25'1312.1
2014-Jul-19 13:29N 38°05' E 000°40'1112.1
2014-Jul-19 12:32N 38°10' E 000°53'1212.3
2014-Jul-19 11:33N 38°15' E 001°07'1312.6
2014-Jul-19 10:33N 38°21' E 001°21'1211.7
2014-Jul-19 09:33N 38°26' E 001°35'8 8.0
2014-Jul-19 08:33N 38°30' E 001°44'9 9.4
2014-Jul-19 07:33N 38°34' E 001°54'1212.5
2014-Jul-19 06:33N 38°39' E 002°09'1212.3
2014-Jul-19 05:33N 38°45' E 002°23'1212.4
2014-Jul-19 04:33N 38°50' E 002°37'1212.2
2014-Jul-19 03:33N 38°56' E 002°51'1212.0
2014-Jul-19 02:33N 39°01' E 003°05'1212.2
2014-Jul-19 01:33N 39°08' E 003°18'1212.3
2014-Jul-19 00:33N 39°15' E 003°31'1212.3
2014-Jul-18 23:33N 39°21' E 003°45'1212.3
2014-Jul-18 22:33N 39°28' E 003°59'1212.3
2014-Jul-18 21:33N 39°34' E 004°12'1212.2
2014-Jul-18 20:33N 39°40' E 004°26'8 7.8
2014-Jul-18 19:33N 39°45' E 004°33'9 7.7
2014-Jul-18 18:27N 39°51' E 004°41'7 8.0
2014-Jul-18 17:33N 39°56' E 004°48'8 7.9
2014-Jul-18 16:33N 40°02' E 004°55'8 7.7
2014-Jul-18 15:33N 40°07' E 005°02'1111.2
2014-Jul-18 14:33N 40°15' E 005°13'1312.8
2014-Jul-18 13:33N 40°24' E 005°25'1212.4
2014-Jul-18 12:33N 40°32' E 005°37'1212.3
2014-Jul-18 11:33N 40°41' E 005°49'1312.8
2014-Jul-18 10:33N 40°50' E 006°01'1312.7
2014-Jul-18 09:33N 40°59' E 006°13'1312.8
2014-Jul-18 08:33N 41°07' E 006°25'1312.7
2014-Jul-18 07:33N 41°16' E 006°37'1312.6
2014-Jul-18 06:33N 41°25' E 006°49'1212.5
2014-Jul-18 05:33N 41°34' E 007°01'1212.4
2014-Jul-18 04:33N 41°42' E 007°13'1212.2
2014-Jul-18 03:33N 41°51' E 007°25'1212.3
2014-Jul-18 02:33N 41°59' E 007°37'1212.5
2014-Jul-18 01:33N 42°08' E 007°49'1312.5
2014-Jul-18 00:33N 42°17' E 008°01'1212.4
2014-Jul-17 23:33N 42°25' E 008°13'1212.1
2014-Jul-17 22:33N 42°34' E 008°25'1211.9
2014-Jul-17 21:33N 42°42' E 008°37'1212.3
2014-Jul-17 20:33N 42°50' E 008°49'1312.7
2014-Jul-17 19:33N 42°59' E 009°01'1312.5
2014-Jul-17 18:33N 43°08' E 009°14'1212.3
2014-Jul-17 17:33N 43°16' E 009°26'6 6.0
2014-Jul-17 16:33N 43°21' E 009°32'1312.9
2014-Jul-17 15:33N 43°30' E 009°44'1212.2
2014-Jul-17 14:33N 43°32' E 010°01'1211.8
2014-Jul-17 13:33N 43°32' E 010°17'1 1.3
2014-Jul-17 12:32N 43°34' E 010°18'0 0.0
2014-Jul-17 11:32N 43°34' E 010°18'0 0.0
2014-Jul-17 10:32N 43°34' E 010°18'0 0.0
2014-Jul-17 09:32N 43°34' E 010°18'0 0.0
2014-Jul-17 08:32N 43°34' E 010°18'0 0.0
2014-Jul-17 07:29N 43°34' E 010°18'0 0.0
2014-Jul-17 06:32N 43°34' E 010°18'0 0.0
2014-Jul-17 05:32N 43°34' E 010°18'0 0.0
2014-Jul-17 04:32N 43°34' E 010°18'0 0.0
2014-Jul-17 03:32N 43°34' E 010°18'0 0.0
2014-Jul-17 02:32N 43°34' E 010°18'0 0.0
2014-Jul-17 01:32N 43°34' E 010°18'0 0.0
2014-Jul-17 00:32N 43°34' E 010°18'0 0.0
2014-Jul-16 23:32N 43°34' E 010°18'0 0.0
2014-Jul-16 22:32N 43°34' E 010°18'0 0.0
2014-Jul-16 21:32N 43°34' E 010°18'0 0.0
2014-Jul-16 20:32N 43°34' E 010°18'0 0.0
2014-Jul-16 19:32N 43°34' E 010°18'0 0.0
2014-Jul-16 18:32N 43°34' E 010°18'0 0.0
2014-Jul-16 17:32N 43°34' E 010°18'0 0.0
2014-Jul-16 16:32N 43°34' E 010°18'0 0.0
2014-Jul-16 15:32N 43°34' E 010°18'0 0.0
2014-Jul-16 14:32N 43°34' E 010°18'0 0.0
2014-Jul-16 13:32N 43°34' E 010°18'0 0.0
2014-Jul-16 12:32N 43°34' E 010°18'0 0.0
2014-Jul-16 11:32N 43°34' E 010°18'0 0.0
2014-Jul-16 10:32N 43°34' E 010°18'0 0.0
2014-Jul-16 09:32N 43°34' E 010°18'0 0.0
2014-Jul-16 08:32N 43°34' E 010°18'0 0.0
2014-Jul-16 07:29N 43°34' E 010°18'2 2.5
2014-Jul-16 06:33N 43°32' E 010°16'  

Dump ship's entire track history